createdAt,value
2023-10-27T00:01:06.878Z,98755.63
2023-10-27T00:03:51.913Z,98757.84
2023-10-27T00:06:37.270Z,98764.94
2023-10-27T00:09:22.128Z,98761.09
2023-10-27T00:12:07.945Z,98759.06
2023-10-27T00:14:52.831Z,98760.47
2023-10-27T00:17:37.747Z,98763.53
2023-10-27T00:20:22.596Z,98766.59
2023-10-27T00:23:07.539Z,98767.41
2023-10-27T00:25:52.906Z,98763.53
2023-10-27T00:28:37.988Z,98762.91
2023-10-27T00:31:23.410Z,98758.84
2023-10-27T00:34:08.269Z,98758.88
2023-10-27T00:36:53.266Z,98751.34
2023-10-27T00:39:39.889Z,98752.78
2023-10-27T00:42:24.948Z,98750.94
2023-10-27T00:45:10.142Z,98753.78
2023-10-27T00:47:55.610Z,98742.19
2023-10-27T00:50:40.973Z,98750.31
2023-10-27T00:53:26.256Z,98749.94
2023-10-27T00:56:11.495Z,98754.41
2023-10-27T00:58:58.482Z,98755.41
2023-10-27T01:01:43.902Z,98753.78
2023-10-27T01:04:29.384Z,98757.06
2023-10-27T01:07:14.556Z,98752.78
2023-10-27T01:09:59.706Z,98742.63
2023-10-27T01:12:48.128Z,98747.69
2023-10-27T01:15:33.225Z,98740.19
2023-10-27T01:18:18.273Z,98742.81
2023-10-27T01:21:04.921Z,98744.44
2023-10-27T01:23:49.855Z,98742.00
2023-10-27T01:26:34.929Z,98740.97
2023-10-27T01:29:21.535Z,98737.50
2023-10-27T01:32:06.737Z,98724.47
2023-10-27T01:34:51.841Z,98733.84
2023-10-27T01:37:36.807Z,98739.34
2023-10-27T01:40:21.762Z,98739.56
2023-10-27T01:43:06.936Z,98739.53
2023-10-27T01:45:51.792Z,98741.19
2023-10-27T01:48:37.255Z,98743.63
2023-10-27T01:51:22.477Z,98736.28
2023-10-27T01:54:07.414Z,98726.53
2023-10-27T01:56:52.451Z,98725.50
2023-10-27T01:59:37.397Z,98712.69
2023-10-27T02:02:22.906Z,98714.94
2023-10-27T02:05:09.123Z,98713.09
2023-10-27T02:07:54.133Z,98703.34
2023-10-27T02:10:39.083Z,98708.44
2023-10-27T02:13:24.266Z,98711.47
2023-10-27T02:16:09.302Z,98687.66
2023-10-27T02:18:54.187Z,98692.94
2023-10-27T02:21:39.148Z,98683.59
2023-10-27T02:24:24.186Z,98687.03
2023-10-27T02:27:09.100Z,98676.03
2023-10-27T02:29:53.970Z,98675.44
2023-10-27T02:32:39.189Z,98678.91
2023-10-27T02:35:26.477Z,98672.19
2023-10-27T02:38:11.536Z,98669.53
2023-10-27T02:40:56.847Z,98665.84
2023-10-27T02:43:41.788Z,98662.38
2023-10-27T02:46:26.817Z,98657.28
2023-10-27T02:49:11.725Z,98652.63
2023-10-27T02:51:56.767Z,98651.56
2023-10-27T02:54:41.677Z,98652.59
2023-10-27T02:57:26.682Z,98648.75
2023-10-27T03:00:12.085Z,98651.97
2023-10-27T03:02:57.401Z,98644.28
2023-10-27T03:05:42.267Z,98640.59
2023-10-27T03:08:27.294Z,98646.31
2023-10-27T03:11:12.542Z,98644.63
2023-10-27T03:13:57.293Z,98635.06
2023-10-27T03:16:42.258Z,98637.50
2023-10-27T03:19:27.267Z,98633.03
2023-10-27T03:22:13.283Z,98630.19
2023-10-27T03:24:58.056Z,98624.72
2023-10-27T03:27:43.969Z,98633.84
2023-10-27T03:30:29.126Z,98629.38
2023-10-27T03:33:14.539Z,98622.22
2023-10-27T03:35:59.778Z,98627.50
2023-10-27T03:38:44.694Z,98626.47
2023-10-27T03:41:30.306Z,98619.53
2023-10-27T03:44:15.204Z,98621.78
2023-10-27T03:47:00.204Z,98610.41
2023-10-27T03:49:45.257Z,98619.19
2023-10-27T03:52:30.658Z,98610.00
2023-10-27T03:55:15.875Z,98610.00
2023-10-27T03:58:18.023Z,98610.03
2023-10-27T04:01:05.223Z,98610.66
2023-10-27T04:03:50.242Z,98611.66
2023-10-27T04:06:35.659Z,98607.81
2023-10-27T04:09:22.354Z,98603.31
2023-10-27T04:12:08.279Z,98607.38
2023-10-27T04:14:53.210Z,98608.97
2023-10-27T04:17:38.370Z,98607.38
2023-10-27T04:20:23.453Z,98605.56
2023-10-27T04:23:10.154Z,98608.00
2023-10-27T04:25:55.470Z,98616.53
2023-10-27T04:28:40.751Z,98604.72
2023-10-27T04:31:26.941Z,98606.78
2023-10-27T04:34:12.818Z,98608.78
2023-10-27T04:36:57.911Z,98613.84
2023-10-27T04:39:42.952Z,98610.19
2023-10-27T04:42:28.626Z,98608.94
2023-10-27T04:45:13.510Z,98612.31
2023-10-27T04:47:58.485Z,98602.81
2023-10-27T04:50:43.426Z,98605.50
2023-10-27T04:53:28.678Z,98610.91
2023-10-27T04:56:13.622Z,98607.88
2023-10-27T04:58:58.746Z,98609.03
2023-10-27T05:01:43.863Z,98611.34
2023-10-27T05:04:28.957Z,98613.56
2023-10-27T05:07:13.839Z,98612.75
2023-10-27T05:09:58.889Z,98608.63
2023-10-27T05:12:44.162Z,98614.72
2023-10-27T05:15:29.393Z,98618.38
2023-10-27T05:18:17.024Z,98617.41
2023-10-27T05:21:02.440Z,98608.69
2023-10-27T05:23:48.768Z,98616.41
2023-10-27T05:26:33.910Z,98613.50
2023-10-27T05:29:18.800Z,98610.03
2023-10-27T05:32:04.256Z,98618.38
2023-10-27T05:34:49.672Z,98616.72
2023-10-27T05:37:34.473Z,98616.34
2023-10-27T05:40:19.527Z,98620.38
2023-10-27T05:43:04.817Z,98623.44
2023-10-27T05:45:49.710Z,98614.63
2023-10-27T05:48:34.851Z,98619.38
2023-10-27T05:51:19.899Z,98616.69
2023-10-27T05:54:06.204Z,98616.38
2023-10-27T05:56:52.365Z,98616.97
2023-10-27T05:59:37.378Z,98619.72
2023-10-27T06:02:22.402Z,98621.75
2023-10-27T06:05:07.637Z,98622.50
2023-10-27T06:07:52.922Z,98617.19
2023-10-27T06:10:38.898Z,98622.50
2023-10-27T06:13:23.874Z,98616.78
2023-10-27T06:16:09.142Z,98613.88
2023-10-27T06:18:55.355Z,98608.59
2023-10-27T06:21:40.480Z,98606.47
2023-10-27T06:24:25.439Z,98619.03
2023-10-27T06:27:10.573Z,98613.28
2023-10-27T06:29:57.595Z,98610.19
2023-10-27T06:32:42.741Z,98621.59
2023-10-27T06:35:27.796Z,98616.28
2023-10-27T06:38:12.656Z,98616.13
2023-10-27T06:40:57.930Z,98612.84
2023-10-27T06:43:43.489Z,98622.06
2023-10-27T06:46:28.743Z,98629.44
2023-10-27T06:49:14.504Z,98626.88
2023-10-27T06:51:59.530Z,98624.06
2023-10-27T06:54:44.916Z,98633.56
2023-10-27T06:57:31.225Z,98630.75
2023-10-27T07:00:16.770Z,98635.09
2023-10-27T07:03:02.441Z,98630.22
2023-10-27T07:05:47.493Z,98635.16
2023-10-27T07:08:32.533Z,98635.75
2023-10-27T07:11:17.529Z,98643.94
2023-10-27T07:14:03.234Z,98644.56
2023-10-27T07:16:52.973Z,98646.81
2023-10-27T07:19:37.962Z,98646.50
2023-10-27T07:22:23.197Z,98644.97
2023-10-27T07:25:08.688Z,98657.66
2023-10-27T07:27:56.453Z,98654.66
2023-10-27T07:30:41.675Z,98653.31
2023-10-27T07:33:26.811Z,98656.44
2023-10-27T07:36:11.658Z,98658.00
2023-10-27T07:38:58.097Z,98667.78
2023-10-27T07:41:43.275Z,98665.66
2023-10-27T07:44:28.276Z,98663.03
2023-10-27T07:47:13.036Z,98665.63
2023-10-27T07:49:57.837Z,98666.41
2023-10-27T07:52:43.249Z,98668.63
2023-10-27T07:55:28.396Z,98675.56
2023-10-27T07:58:13.477Z,98677.78
2023-10-27T08:00:58.533Z,98682.00
2023-10-27T08:03:43.856Z,98678.63
2023-10-27T08:06:29.182Z,98678.44
2023-10-27T08:09:14.751Z,98685.97
2023-10-27T08:11:59.822Z,98682.72
2023-10-27T08:14:45.484Z,98686.47
2023-10-27T08:17:30.843Z,98678.28
2023-10-27T08:20:16.472Z,98686.09
2023-10-27T08:23:01.515Z,98685.28
2023-10-27T08:25:53.106Z,98699.44
2023-10-27T08:28:38.298Z,98697.81
2023-10-27T08:31:23.795Z,98701.31
2023-10-27T08:34:12.215Z,98702.97
2023-10-27T08:36:57.537Z,98707.34
2023-10-27T08:39:43.468Z,98702.56
2023-10-27T08:42:34.491Z,98713.31
2023-10-27T08:45:22.025Z,98707.03
2023-10-27T08:48:07.310Z,98716.47
2023-10-27T08:50:52.995Z,98713.31
2023-10-27T08:53:41.625Z,98712.66
2023-10-27T08:56:26.753Z,98707.19
2023-10-27T08:59:12.024Z,98709.47
2023-10-27T09:01:56.893Z,98693.66
2023-10-27T09:04:45.110Z,98703.28
2023-10-27T09:07:34.221Z,98707.75
2023-10-27T09:10:19.950Z,98712.75
2023-10-27T09:13:09.383Z,98709.28
2023-10-27T09:15:54.677Z,98712.91
2023-10-27T09:18:39.903Z,98712.75
2023-10-27T09:21:33.563Z,98712.13
2023-10-27T09:24:27.151Z,98704.44
2023-10-27T09:27:14.109Z,98722.94
2023-10-27T09:29:59.368Z,98717.88
2023-10-27T09:32:44.282Z,98723.31
2023-10-27T09:35:29.676Z,98723.72
2023-10-27T09:38:15.579Z,98721.06
2023-10-27T09:41:07.578Z,98724.81
2023-10-27T09:43:53.516Z,98727.63
2023-10-27T09:46:40.717Z,98724.81
2023-10-27T09:49:34.909Z,98726.88
2023-10-27T09:52:21.800Z,98731.97
2023-10-27T09:55:15.257Z,98737.28
2023-10-27T09:58:02.350Z,98739.06
2023-10-27T10:00:49.766Z,98740.81
2023-10-27T10:03:35.045Z,98744.88
2023-10-27T10:06:25.785Z,98744.75
2023-10-27T10:09:15.619Z,98741.72
2023-10-27T10:12:00.988Z,98744.06
2023-10-27T10:14:49.571Z,98743.16
2023-10-27T10:17:41.814Z,98733.91
2023-10-27T10:20:42.563Z,98740.25
2023-10-27T10:23:41.638Z,98753.34
2023-10-27T10:27:05.612Z,98747.50
2023-10-27T10:29:50.679Z,98755.13
2023-10-27T10:32:37.616Z,98744.91
2023-10-27T10:35:24.988Z,98748.53
2023-10-27T10:38:25.057Z,98759.88
2023-10-27T10:41:10.439Z,98762.34
2023-10-27T10:44:18.081Z,98759.94
2023-10-27T10:47:16.987Z,98763.34
2023-10-27T10:50:01.868Z,98763.28
2023-10-27T10:52:47.271Z,98750.47
2023-10-27T10:55:32.649Z,98744.56
2023-10-27T10:58:25.096Z,98743.63
2023-10-27T11:01:18.023Z,98738.31
2023-10-27T11:04:03.351Z,98752.28
2023-10-27T11:06:48.350Z,98737.97
2023-10-27T11:09:33.501Z,98745.13
2023-10-27T11:12:27.243Z,98743.81
2023-10-27T11:15:41.652Z,98739.69
2023-10-27T11:18:32.582Z,98741.28
2023-10-27T11:21:21.908Z,98743.81
2023-10-27T11:24:08.813Z,98748.69
2023-10-27T11:26:53.980Z,98745.44
2023-10-27T11:29:39.017Z,98745.94
2023-10-27T11:32:24.907Z,98751.00
2023-10-27T11:35:09.822Z,98762.56
2023-10-27T11:38:02.804Z,98753.34
2023-10-27T11:40:47.977Z,98743.84
2023-10-27T11:43:33.305Z,98740.13
2023-10-27T11:46:19.573Z,98753.47
2023-10-27T11:49:04.744Z,98726.41
2023-10-27T11:51:52.971Z,98740.03
2023-10-27T11:54:38.023Z,98747.94
2023-10-27T11:57:22.969Z,98749.66
2023-10-27T12:00:09.900Z,98762.97
2023-10-27T12:02:55.139Z,98758.78
2023-10-27T12:05:40.448Z,98760.31
2023-10-27T12:08:25.842Z,98753.69
2023-10-27T12:11:11.445Z,98761.31
2023-10-27T12:13:57.303Z,98765.69
2023-10-27T12:16:43.229Z,98761.63
2023-10-27T12:19:28.446Z,98765.09
2023-10-27T12:22:13.670Z,98764.00
2023-10-27T12:24:59.034Z,98773.88
2023-10-27T12:27:44.292Z,98781.28
2023-10-27T12:30:29.406Z,98784.13
2023-10-27T12:33:14.312Z,98772.28
2023-10-27T12:36:06.666Z,98776.03
2023-10-27T12:38:52.066Z,98786.66
2023-10-27T12:41:37.936Z,98797.53
2023-10-27T12:44:24.339Z,98781.97
2023-10-27T12:47:09.738Z,98784.81
2023-10-27T12:49:55.589Z,98778.28
2023-10-27T12:52:41.691Z,98782.63
2023-10-27T12:55:31.901Z,98777.41
2023-10-27T12:58:18.746Z,98792.03
2023-10-27T13:01:05.083Z,98793.16
2023-10-27T13:03:50.844Z,98796.44
2023-10-27T13:06:37.524Z,98792.13
2023-10-27T13:09:23.139Z,98792.91
2023-10-27T13:12:09.350Z,98797.69
2023-10-27T13:14:55.860Z,98808.34
2023-10-27T13:17:41.472Z,98806.31
2023-10-27T13:20:26.679Z,98795.47
2023-10-27T13:23:11.626Z,98789.06
2023-10-27T13:26:03.657Z,98792.25
2023-10-27T13:28:49.010Z,98783.94
2023-10-27T13:31:34.303Z,98787.78
2023-10-27T13:34:20.594Z,98782.91
2023-10-27T13:37:06.125Z,98789.97
2023-10-27T13:39:51.496Z,98788.69
2023-10-27T13:42:37.462Z,98806.06
2023-10-27T13:45:22.622Z,98805.94
2023-10-27T13:48:10.263Z,98797.31
2023-10-27T13:50:56.501Z,98823.56
2023-10-27T13:53:42.379Z,98812.25
2023-10-27T13:56:28.283Z,98822.44
2023-10-27T13:59:13.285Z,98819.34
2023-10-27T14:01:58.376Z,98816.28
2023-10-27T14:04:43.641Z,98821.53
2023-10-27T14:07:29.109Z,98816.88
2023-10-27T14:10:14.341Z,98811.81
2023-10-27T14:12:59.406Z,98813.78
2023-10-27T14:15:44.524Z,98797.69
2023-10-27T14:18:30.263Z,98796.78
2023-10-27T14:21:15.401Z,98807.63
2023-10-27T14:24:00.558Z,98803.19
2023-10-27T14:26:47.342Z,98800.28
2023-10-27T14:29:32.869Z,98802.97
2023-10-27T14:32:18.094Z,98808.72
2023-10-27T14:35:04.183Z,98814.84
2023-10-27T14:37:52.833Z,98813.69
2023-10-27T14:40:38.072Z,98821.31
2023-10-27T14:43:23.243Z,98814.09
2023-10-27T14:46:13.089Z,98814.47
2023-10-27T14:48:58.353Z,98801.22
2023-10-27T14:51:43.386Z,98797.41
2023-10-27T14:54:28.755Z,98805.25
2023-10-27T14:57:14.032Z,98815.56
2023-10-27T14:59:58.996Z,98815.66
2023-10-27T15:02:44.448Z,98818.72
2023-10-27T15:05:29.195Z,98824.66
2023-10-27T15:08:14.128Z,98819.19
2023-10-27T15:10:59.473Z,98821.31
2023-10-27T15:13:44.526Z,98819.47
2023-10-27T15:16:33.472Z,98814.81
2023-10-27T15:19:18.304Z,98824.81
2023-10-27T15:22:03.453Z,98825.13
2023-10-27T15:24:48.406Z,98834.75
2023-10-27T15:27:33.367Z,98838.19
2023-10-27T15:30:18.679Z,98832.53
2023-10-27T15:33:04.152Z,98847.09
2023-10-27T15:35:49.157Z,98844.84
2023-10-27T15:38:34.990Z,98835.00
2023-10-27T15:41:39.697Z,98830.75
2023-10-27T15:44:24.678Z,98828.66
2023-10-27T15:47:10.964Z,98840.84
2023-10-27T15:49:56.195Z,98837.81
2023-10-27T15:52:41.510Z,98843.88
2023-10-27T15:55:26.564Z,98850.16
2023-10-27T15:58:11.435Z,98844.91
2023-10-27T16:00:57.619Z,98843.75
2023-10-27T16:03:43.016Z,98850.31
2023-10-27T16:06:28.509Z,98859.59
2023-10-27T16:09:35.380Z,98857.34
2023-10-27T16:12:18.243Z,98865.56
2023-10-27T16:15:03.887Z,98876.31
2023-10-27T16:17:49.222Z,98875.22
2023-10-27T16:20:38.187Z,98884.13
2023-10-27T16:23:23.453Z,98898.47
2023-10-27T16:26:08.437Z,98909.84
2023-10-27T16:28:53.829Z,98907.59
2023-10-27T16:31:38.717Z,98900.28
2023-10-27T16:34:24.055Z,98905.19
2023-10-27T16:37:09.205Z,98907.31
2023-10-27T16:39:54.472Z,98904.88
2023-10-27T16:42:40.277Z,98907.72
2023-10-27T16:45:26.463Z,98904.25
2023-10-27T16:48:11.761Z,98913.28
2023-10-27T16:51:27.211Z,98919.75
2023-10-27T16:54:14.201Z,98911.25
2023-10-27T16:56:59.258Z,98913.06
2023-10-27T16:59:48.450Z,98909.63
2023-10-27T17:02:34.188Z,98908.59
2023-10-27T17:05:19.553Z,98915.78
2023-10-27T17:08:05.034Z,98922.78
2023-10-27T17:10:57.677Z,98927.38
2023-10-27T17:13:42.633Z,98935.06
2023-10-27T17:16:27.497Z,98926.09
2023-10-27T17:19:12.533Z,98929.81
2023-10-27T17:21:59.548Z,98942.91
2023-10-27T17:24:44.621Z,98939.09
2023-10-27T17:27:29.892Z,98947.56
2023-10-27T17:30:16.020Z,98948.59
2023-10-27T17:33:01.052Z,98950.84
2023-10-27T17:35:45.929Z,98960.25
2023-10-27T17:38:32.837Z,98963.72
2023-10-27T17:41:18.067Z,98967.72
2023-10-27T17:44:08.454Z,98968.56
2023-10-27T17:46:54.210Z,98970.59
2023-10-27T17:49:39.626Z,98960.97
2023-10-27T17:52:24.931Z,98964.63
2023-10-27T17:55:10.243Z,98974.22
2023-10-27T17:57:55.495Z,98979.75
2023-10-27T18:00:40.463Z,98979.53
2023-10-27T18:03:25.887Z,98977.69
2023-10-27T18:06:16.100Z,98983.81
2023-10-27T18:09:01.224Z,98988.78
2023-10-27T18:11:46.638Z,98985.72
2023-10-27T18:14:31.677Z,98995.28
2023-10-27T18:17:17.216Z,98985.50
2023-10-27T18:20:06.387Z,98984.28
2023-10-27T18:22:51.845Z,98990.22
2023-10-27T18:25:37.574Z,98998.38
2023-10-27T18:28:22.493Z,98998.00
2023-10-27T18:31:08.518Z,99001.06
2023-10-27T18:33:53.735Z,99008.38
2023-10-27T18:36:39.605Z,99000.03
2023-10-27T18:39:24.953Z,98999.00
2023-10-27T18:42:10.606Z,99001.03
2023-10-27T18:44:55.582Z,98997.97
2023-10-27T18:47:40.833Z,99000.44
2023-10-27T18:50:26.811Z,98999.81
2023-10-27T18:53:11.937Z,98994.72
2023-10-27T18:56:03.002Z,98994.31
2023-10-27T18:58:48.045Z,98992.47
2023-10-27T19:01:33.330Z,98996.72
2023-10-27T19:04:18.922Z,99000.59
2023-10-27T19:07:06.512Z,98995.66
2023-10-27T19:09:54.583Z,99002.34
2023-10-27T19:12:41.904Z,99001.13
2023-10-27T19:15:28.007Z,99009.63
2023-10-27T19:18:13.438Z,99009.63
2023-10-27T19:21:11.672Z,99014.03
2023-10-27T19:23:57.740Z,99016.25
2023-10-27T19:26:42.869Z,99016.69
2023-10-27T19:29:27.800Z,99014.41
2023-10-27T19:32:13.387Z,99009.97
2023-10-27T19:34:58.510Z,99005.91
2023-10-27T19:37:44.170Z,99017.66
2023-10-27T19:40:29.091Z,99010.06
2023-10-27T19:43:14.245Z,99012.59
2023-10-27T19:45:59.498Z,99013.84
2023-10-27T19:48:45.627Z,99019.72
2023-10-27T19:51:30.831Z,99025.84
2023-10-27T19:54:18.125Z,99026.47
2023-10-27T19:57:03.381Z,99020.53
2023-10-27T19:59:48.756Z,99025.59
2023-10-27T20:02:34.658Z,99033.38
2023-10-27T20:05:19.950Z,99035.84
2023-10-27T20:08:06.420Z,99036.84
2023-10-27T20:10:51.468Z,99037.00
2023-10-27T20:13:44.827Z,99030.63
2023-10-27T20:16:31.173Z,99040.00
2023-10-27T20:19:16.084Z,99039.38
2023-10-27T20:22:01.744Z,99036.94
2023-10-27T20:24:46.783Z,99037.78
2023-10-27T20:27:32.666Z,99037.66
2023-10-27T20:30:18.611Z,99041.00
2023-10-27T20:33:03.654Z,99040.69
2023-10-27T20:35:48.725Z,99041.41
2023-10-27T20:38:33.891Z,99043.03
2023-10-27T20:41:18.878Z,99045.28
2023-10-27T20:44:04.412Z,99043.91
2023-10-27T20:46:49.599Z,99041.44
2023-10-27T20:49:34.844Z,99043.31
2023-10-27T20:52:20.026Z,99044.28
2023-10-27T20:55:06.287Z,99037.25
2023-10-27T20:57:51.565Z,99036.91
2023-10-27T21:00:36.729Z,99034.91
2023-10-27T21:03:21.921Z,99032.72
2023-10-27T21:06:08.475Z,99034.16
2023-10-27T21:08:53.522Z,99036.44
2023-10-27T21:11:38.784Z,99035.25
2023-10-27T21:14:24.567Z,99035.81
2023-10-27T21:17:09.791Z,99026.03
2023-10-27T21:19:55.450Z,99032.69
2023-10-27T21:22:43.564Z,99036.00
2023-10-27T21:25:31.256Z,99034.84
2023-10-27T21:28:16.461Z,99037.44
2023-10-27T21:31:01.942Z,99039.69
2023-10-27T21:33:47.253Z,99044.81
2023-10-27T21:36:32.129Z,99043.22
2023-10-27T21:39:17.140Z,99042.16
2023-10-27T21:42:02.345Z,99049.28
2023-10-27T21:44:48.092Z,99043.56
2023-10-27T21:47:33.641Z,99051.69
2023-10-27T21:50:18.868Z,99045.28
2023-10-27T21:53:05.942Z,99055.28
2023-10-27T21:55:51.134Z,99065.13
2023-10-27T21:58:36.466Z,99055.72
2023-10-27T22:01:21.911Z,99067.97
2023-10-27T22:04:17.429Z,99070.97
2023-10-27T22:07:05.260Z,99069.16
2023-10-27T22:09:50.193Z,99077.91
2023-10-27T22:12:35.529Z,99075.50
2023-10-27T22:15:20.886Z,99084.06
2023-10-27T22:18:06.660Z,99079.97
2023-10-27T22:20:52.912Z,99080.41
2023-10-27T22:23:38.998Z,99084.03
2023-10-27T22:26:25.956Z,99085.47
2023-10-27T22:29:11.239Z,99089.53
2023-10-27T22:31:56.159Z,99081.00
2023-10-27T22:34:41.219Z,99089.09
2023-10-27T22:37:26.276Z,99091.91
2023-10-27T22:40:11.899Z,99091.00
2023-10-27T22:42:57.534Z,99095.34
2023-10-27T22:45:43.381Z,99093.56
2023-10-27T22:48:28.302Z,99087.06
2023-10-27T22:51:13.860Z,99095.25
2023-10-27T22:53:58.925Z,99095.88
2023-10-27T22:56:43.773Z,99103.03
2023-10-27T22:59:28.884Z,99098.91
2023-10-27T23:02:14.064Z,99101.22
2023-10-27T23:04:59.858Z,99096.69
2023-10-27T23:07:44.839Z,99095.97
2023-10-27T23:10:29.853Z,99096.59
2023-10-27T23:13:15.114Z,99095.75
2023-10-27T23:16:03.712Z,99094.34
2023-10-27T23:18:48.987Z,99100.66
2023-10-27T23:21:33.928Z,99100.00
2023-10-27T23:24:19.466Z,99105.97
2023-10-27T23:27:06.499Z,99105.78
2023-10-27T23:29:51.826Z,99103.97
2023-10-27T23:32:37.045Z,99103.53
2023-10-27T23:35:24.091Z,99111.47
2023-10-27T23:38:10.548Z,99102.53
2023-10-27T23:40:56.674Z,99100.50
2023-10-27T23:43:42.295Z,99091.56
2023-10-27T23:46:28.391Z,99091.78
2023-10-27T23:49:13.803Z,99097.72
2023-10-27T23:51:58.581Z,99090.03
2023-10-27T23:54:43.522Z,99100.44
2023-10-27T23:57:28.329Z,99092.47
